EST,Max TemperatureF,Mean TemperatureF,Min TemperatureF,Max Dew PointF,MeanDew PointF,Min DewpointF,Max Humidity, Mean Humidity, Min Humidity, Max Sea Level PressureIn, Mean Sea Level PressureIn, Min Sea Level PressureIn, Max VisibilityMiles, Mean VisibilityMiles, Min VisibilityMiles, Max Wind SpeedMPH, Mean Wind SpeedMPH, Max Gust SpeedMPH,PrecipitationIn, CloudCover, Events, WindDirDegrees
2013-11-1,59,52,46,48,46,43,100,76,59,29.75,29.70,29.66,10,10,10,15,12,29,0.00,4,,235
2013-11-2,55,47,39,45,39,36,100,76,58,30.10,29.96,29.84,10,10,10,17,5,,0.00,4,,309
2013-11-3,51,42,33,41,35,32,100,78,47,30.34,30.30,30.25,10,9,4,0,0,,0.00,0,,-1
2013-11-4,53,46,39,43,40,36,87,69,58,30.38,30.32,30.28,10,10,10,14,7,,0.00,0,,154
2013-11-5,59,52,46,46,45,41,100,72,55,30.39,30.31,30.22,10,10,10,9,3,,0.00,2,,161
2013-11-6,57,55,53,57,51,45,100,88,72,30.09,30.04,29.99,10,7,3,14,8,,0.00,7,Rain,192
2013-11-7,48,40,33,34,30,27,93,68,43,30.31,30.26,30.22,10,10,10,12,8,18,0.00,1,,288
2013-11-8,50,39,28,32,29,27,100,70,40,30.39,30.31,30.23,10,10,7,9,1,,0.00,0,,147
2013-11-9,60,48,35,39,35,27,70,55,42,30.14,30.09,30.04,10,10,10,21,13,29,0.00,0,,223
2013-11-10,48,40,32,32,31,28,93,69,46,30.44,30.32,30.10,10,10,10,17,8,,0.00,0,,324
2013-11-11,53,42,32,45,36,30,100,77,51,30.28,30.20,30.11,10,9,4,18,6,30,0.00,7,Rain,243
2013-11-12,35,30,26,25,23,21,86,73,56,30.63,30.59,30.50,10,10,10,17,12,,0.00,2,,346
2013-11-13,39,29,19,21,18,12,100,64,33,30.66,30.59,30.47,10,10,10,10,4,,0.00,0,,220
2013-11-14,53,40,26,50,21,14,88,46,21,30.33,30.24,30.15,10,10,10,18,10,21,0.00,0,,196
2013-11-15,48,42,35,37,29,23,71,54,46,30.15,30.11,30.08,10,10,10,12,9,,0.00,5,,187
2013-11-16,57,52,48,57,52,46,100,94,88,30.09,29.98,29.88,10,7,2,21,13,,0.00,8,Rain,166
2013-11-17,64,58,50,63,57,41,100,89,62,29.78,29.63,29.48,10,8,5,29,19,46,0.00,6,Rain-Thunderstorm,203
2013-11-18,50,46,42,37,35,28,81,63,46,30.11,30.04,29.96,10,10,10,22,14,29,0.00,0,,276
2013-11-19,41,34,28,30,29,28,100,78,61,30.36,30.33,30.30,10,10,8,14,8,,0.00,0,,28
2013-11-20,50,38,26,34,30,25,93,68,47,30.30,30.23,30.19,10,10,10,10,4,,0.00,0,,153
2013-11-21,55,48,42,48,44,37,94,82,67,30.29,30.23,30.18,10,10,10,9,3,,0.00,6,Rain,164
2013-11-22,50,44,37,50,44,34,100,95,87,30.42,30.29,30.18,10,7,1,21,9,24,0.00,8,Rain,329
2013-11-23,32,28,24,28,21,12,100,73,59,30.59,30.48,30.43,10,10,10,23,10,37,0.00,3,,323
2013-11-24,26,20,15,14,12,9,86,65,47,30.71,30.62,30.53,10,10,10,9,2,,0.00,1,,24
2013-11-25,35,27,19,21,17,16,86,60,44,30.39,30.30,30.22,10,10,7,12,5,,0.00,6,Snow,197
2013-11-26,33,32,30,30,28,27,100,85,75,30.12,30.04,29.97,10,9,5,9,2,,0.00,7,,333
2013-11-27,26,22,17,19,15,10,80,73,59,30.30,30.18,30.07,10,9,3,16,13,24,0.00,5,Snow,304
2013-11-28,35,26,17,19,15,12,93,64,38,30.42,30.35,30.27,10,10,10,14,6,,0.00,0,,188
2013-11-29,39,28,17,25,21,18,100,75,45,30.63,30.57,30.52,10,10,10,0,0,,0.00,0,,-1
2013-11-30,51,37,23,28,25,21,93,64,32,30.42,30.30,30.18,10,10,10,14,3,,0.00,0,,186